Time;durP1;ratioP1;P1;durP2;ratioP2;P2;SDS_P1;SDS_P2;PMS_P1;PMS_P2;Temp;Humidity;BMP_temperature;BMP_pressure;BME280_temperature;BME280_humidity;BME280_pressure;Samples;Min_cycle;Max_cycle;Signal;HPM_P1;HPM_P2
2023/07/25 00:00:22;;;;;;;11.63;7.97;;;15.20;99.90;;;;;;5078235;28;20637;-68
2023/07/25 00:02:47;;;;;;;11.20;7.47;;;15.20;99.90;;;;;;5071184;28;20167;-69
2023/07/25 00:05:13;;;;;;;8.50;7.33;;;15.20;99.90;;;;;;5079204;28;20223;-69
2023/07/25 00:07:38;;;;;;;12.00;7.90;;;15.20;99.90;;;;;;5054521;28;20669;-68
2023/07/25 00:10:04;;;;;;;10.90;7.90;;;15.20;99.90;;;;;;5044562;28;20527;-68
2023/07/25 00:12:29;;;;;;;6.67;5.97;;;15.20;99.90;;;;;;5071099;28;20672;-69
2023/07/25 00:14:55;;;;;;;10.10;7.10;;;15.10;99.90;;;;;;5073991;28;20198;-69
2023/07/25 00:17:20;;;;;;;10.27;7.03;;;15.10;99.90;;;;;;5077632;28;20612;-69
2023/07/25 00:19:46;;;;;;;7.87;6.23;;;15.10;99.90;;;;;;5068544;28;20183;-69
2023/07/25 00:22:12;;;;;;;7.27;5.93;;;15.00;99.90;;;;;;5060020;28;20679;-69
2023/07/25 00:24:37;;;;;;;9.67;6.57;;;15.00;99.90;;;;;;5076690;28;20230;-68
2023/07/25 00:27:03;;;;;;;9.47;6.50;;;15.00;99.90;;;;;;5051737;28;20608;-67
2023/07/25 00:29:28;;;;;;;7.57;5.53;;;15.00;99.90;;;;;;5079855;28;20252;-69
2023/07/25 00:31:55;;;;;;;10.93;6.70;;;15.00;99.90;;;;;;5069140;28;20172;-67
2023/07/25 00:34:20;;;;;;;11.33;6.20;;;15.00;99.90;;;;;;5062241;28;20171;-68
2023/07/25 00:36:46;;;;;;;9.30;7.20;;;14.90;99.90;;;;;;5071691;28;20437;-67
2023/07/25 00:39:11;;;;;;;7.67;6.07;;;14.90;99.90;;;;;;5072566;28;20178;-67
2023/07/25 00:41:37;;;;;;;8.83;7.87;;;14.80;99.90;;;;;;5070025;28;20343;-68
2023/07/25 00:44:03;;;;;;;8.70;6.40;;;14.80;99.90;;;;;;5044759;28;20258;-68
2023/07/25 00:46:28;;;;;;;10.33;6.10;;;14.80;99.90;;;;;;5054005;28;20571;-69
2023/07/25 00:48:54;;;;;;;9.93;7.10;;;14.80;99.90;;;;;;5071844;28;20169;-68
2023/07/25 00:51:20;;;;;;;10.90;7.50;;;14.80;99.90;;;;;;5061885;28;20587;-68
2023/07/25 00:53:46;;;;;;;9.53;6.83;;;14.80;99.90;;;;;;5071599;28;20496;-68
2023/07/25 00:56:13;;;;;;;8.80;7.00;;;14.80;99.90;;;;;;5073221;28;20543;-69
2023/07/25 00:58:39;;;;;;;9.27;7.73;;;14.80;99.90;;;;;;5070718;28;20206;-67
2023/07/25 01:01:06;;;;;;;9.73;7.20;;;14.80;99.90;;;;;;5073851;28;20889;-69
2023/07/25 01:03:37;;;;;;;9.00;7.60;;;14.80;99.90;;;;;;5043097;28;20171;-68
2023/07/25 01:06:05;;;;;;;9.33;6.53;;;14.80;99.90;;;;;;5064263;28;20494;-69
2023/07/25 01:08:31;;;;;;;14.60;6.80;;;14.80;99.90;;;;;;5055139;28;20410;-68
2023/07/25 01:10:57;;;;;;;8.73;7.80;;;14.80;99.90;;;;;;5071139;28;20414;-67
2023/07/25 01:13:22;;;;;;;7.23;6.30;;;14.70;99.90;;;;;;5072688;28;20258;-67
2023/07/25 01:15:53;;;;;;;12.03;8.50;;;14.70;99.90;;;;;;5069583;28;20199;-67
2023/07/25 01:18:19;;;;;;;9.13;7.83;;;14.60;99.90;;;;;;5065955;28;20277;-67
2023/07/25 01:20:47;;;;;;;14.63;8.30;;;14.60;99.90;;;;;;5068035;28;20663;-67
2023/07/25 01:23:13;;;;;;;10.63;6.80;;;14.60;99.90;;;;;;5066781;28;20419;-68
2023/07/25 01:25:39;;;;;;;12.33;7.67;;;14.60;99.90;;;;;;5069030;28;20428;-68
2023/07/25 01:28:05;;;;;;;12.60;7.60;;;14.50;99.90;;;;;;5065347;28;20412;-68
2023/07/25 01:30:31;;;;;;;12.83;7.20;;;14.50;99.90;;;;;;5052466;28;20272;-68
2023/07/25 01:32:57;;;;;;;10.53;7.60;;;14.50;99.90;;;;;;5066033;28;21099;-68
2023/07/25 01:35:22;;;;;;;10.67;8.13;;;14.50;99.90;;;;;;5069305;28;20433;-68
2023/07/25 01:37:48;;;;;;;10.20;7.63;;;14.50;99.90;;;;;;5069813;28;20175;-68
2023/07/25 01:40:14;;;;;;;12.00;8.07;;;14.40;99.90;;;;;;5063473;28;20171;-68
2023/07/25 01:42:40;;;;;;;11.47;7.30;;;14.50;99.90;;;;;;5069529;28;20896;-67
2023/07/25 01:45:06;;;;;;;14.60;8.33;;;14.50;99.90;;;;;;5068346;28;20799;-68
2023/07/25 01:47:33;;;;;;;15.37;8.57;;;14.50;99.90;;;;;;5052898;28;20179;-68
2023/07/25 01:49:58;;;;;;;11.87;8.40;;;14.50;99.90;;;;;;5066235;28;20409;-68
2023/07/25 01:52:24;;;;;;;12.60;9.10;;;14.60;99.90;;;;;;5078477;28;20930;-67
2023/07/25 01:54:51;;;;;;;15.17;8.60;;;14.60;99.90;;;;;;5054112;28;20221;-67
2023/07/25 01:57:17;;;;;;;12.97;9.63;;;14.70;99.90;;;;;;5076260;28;20187;-68
2023/07/25 01:59:42;;;;;;;14.27;9.47;;;14.70;99.90;;;;;;5084125;28;20495;-68
2023/07/25 02:02:08;;;;;;;13.80;8.03;;;14.70;99.90;;;;;;5056675;28;20281;-67
2023/07/25 02:04:34;;;;;;;18.03;10.87;;;14.80;99.90;;;;;;5072258;28;20176;-67
2023/07/25 02:07:00;;;;;;;11.10;9.83;;;14.70;99.90;;;;;;5071810;28;20414;-67
2023/07/25 02:09:25;;;;;;;13.70;8.80;;;14.70;99.90;;;;;;5053086;28;20202;-68
2023/07/25 02:11:51;;;;;;;12.83;9.43;;;14.60;99.90;;;;;;5063577;28;20201;-68
2023/07/25 02:14:16;;;;;;;11.83;8.73;;;14.70;99.90;;;;;;5070230;28;20199;-68
2023/07/25 02:16:42;;;;;;;10.90;8.93;;;14.70;99.90;;;;;;5071760;28;20208;-67
2023/07/25 02:19:08;;;;;;;11.50;9.00;;;14.80;99.90;;;;;;5059338;28;20172;-68
2023/07/25 02:21:34;;;;;;;12.57;9.10;;;14.80;99.90;;;;;;5078387;28;20191;-68
2023/07/25 02:24:00;;;;;;;12.50;9.50;;;14.70;99.90;;;;;;5066210;28;20185;-68
2023/07/25 02:26:26;;;;;;;12.33;8.83;;;14.80;99.90;;;;;;5073674;28;20830;-68
2023/07/25 02:28:51;;;;;;;12.67;9.63;;;14.80;99.90;;;;;;5067704;28;20433;-68
2023/07/25 02:31:18;;;;;;;13.53;8.63;;;14.80;99.90;;;;;;5059182;28;20412;-68
2023/07/25 02:33:43;;;;;;;11.90;8.60;;;14.80;99.90;;;;;;5044790;28;20185;-68
2023/07/25 02:36:09;;;;;;;9.67;8.00;;;14.80;99.90;;;;;;5071360;28;20437;-67
2023/07/25 02:38:34;;;;;;;8.27;7.47;;;14.80;99.90;;;;;;5069587;28;20183;-65
2023/07/25 02:41:00;;;;;;;19.47;8.37;;;14.80;99.90;;;;;;5062424;28;20199;-69
2023/07/25 02:43:26;;;;;;;11.50;7.93;;;14.80;99.90;;;;;;5063587;28;20163;-69
2023/07/25 02:45:52;;;;;;;12.97;8.63;;;14.90;99.90;;;;;;5076540;28;20191;-67
2023/07/25 02:48:18;;;;;;;16.00;9.80;;;14.80;99.90;;;;;;5064686;28;20202;-67
2023/07/25 02:50:44;;;;;;;13.53;8.80;;;14.80;99.90;;;;;;5056805;28;20433;-68
2023/07/25 02:53:09;;;;;;;11.00;8.50;;;14.80;99.90;;;;;;5078127;28;20411;-68
2023/07/25 02:55:36;;;;;;;12.17;8.20;;;14.80;99.90;;;;;;5078366;28;20962;-69
2023/07/25 02:58:01;;;;;;;13.60;8.83;;;14.80;99.90;;;;;;5047462;28;20193;-66
2023/07/25 03:00:27;;;;;;;10.67;9.03;;;14.80;99.90;;;;;;5068254;28;20413;-67
2023/07/25 03:02:52;;;;;;;12.00;8.87;;;14.80;99.90;;;;;;5064290;28;20272;-69
2023/07/25 03:05:18;;;;;;;16.10;10.43;;;14.80;99.90;;;;;;5076916;28;20190;-67
2023/07/25 03:07:44;;;;;;;12.40;10.60;;;14.60;99.90;;;;;;5069446;28;20573;-67
2023/07/25 03:10:10;;;;;;;12.30;10.33;;;14.70;99.90;;;;;;5072189;28;20168;-67
2023/07/25 03:12:35;;;;;;;10.70;9.60;;;14.60;99.90;;;;;;5067658;28;20635;-68
2023/07/25 03:15:02;;;;;;;10.80;9.70;;;14.70;99.90;;;;;;5071902;28;20481;-67
2023/07/25 03:17:29;;;;;;;9.90;7.43;;;14.70;99.90;;;;;;5073710;28;20217;-67
2023/07/25 03:19:55;;;;;;;10.43;9.13;;;14.70;99.90;;;;;;5068841;28;20442;-68
2023/07/25 03:22:21;;;;;;;13.17;9.40;;;14.70;99.90;;;;;;5067215;28;20458;-68
2023/07/25 03:24:48;;;;;;;10.83;8.30;;;14.80;99.90;;;;;;5073683;28;20191;-67
2023/07/25 03:27:14;;;;;;;15.47;8.20;;;14.70;99.90;;;;;;5066971;28;20411;-68
2023/07/25 03:29:40;;;;;;;10.20;7.97;;;14.80;99.90;;;;;;5049495;28;20448;-68
2023/07/25 03:32:06;;;;;;;9.03;8.13;;;14.70;99.90;;;;;;5062956;28;20411;-69
2023/07/25 03:34:32;;;;;;;11.33;8.23;;;14.70;99.90;;;;;;5067376;28;20178;-67
2023/07/25 03:36:57;;;;;;;13.97;7.23;;;14.80;99.90;;;;;;5068742;28;20439;-67
2023/07/25 03:39:23;;;;;;;7.70;6.90;;;14.70;99.90;;;;;;5077821;28;20176;-67
2023/07/25 03:41:48;;;;;;;12.50;8.03;;;14.70;99.90;;;;;;5047263;28;20199;-67
2023/07/25 03:44:18;;;;;;;9.97;7.73;;;14.60;99.90;;;;;;5048656;28;20180;-68
2023/07/25 03:46:44;;;;;;;7.87;7.17;;;14.50;99.90;;;;;;5063143;28;20194;-68
2023/07/25 03:49:10;;;;;;;7.87;6.70;;;14.50;99.90;;;;;;5099365;22;20846;-71
2023/07/25 03:51:36;;;;;;;9.00;6.53;;;14.50;99.90;;;;;;5066513;28;20410;-71
2023/07/25 03:54:06;;;;;;;12.57;8.20;;;14.60;99.90;;;;;;5059440;28;20434;-69
2023/07/25 03:56:32;;;;;;;8.23;7.43;;;14.60;99.90;;;;;;5069867;28;20410;-70
2023/07/25 03:59:01;;;;;;;8.00;7.30;;;14.60;99.90;;;;;;5069491;28;20526;-71
2023/07/25 04:01:27;;;;;;;9.63;7.20;;;14.60;99.90;;;;;;5067414;28;20477;-70
2023/07/25 04:03:52;;;;;;;8.00;7.00;;;14.60;99.90;;;;;;5057058;28;20400;-71
2023/07/25 04:06:19;;;;;;;9.50;7.60;;;14.70;99.90;;;;;;5070239;28;20482;-71
2023/07/25 04:08:45;;;;;;;8.20;6.83;;;14.70;99.90;;;;;;5072384;28;20315;-69
2023/07/25 04:11:12;;;;;;;9.47;6.90;;;14.70;99.90;;;;;;5061183;28;20435;-70
2023/07/25 04:13:38;;;;;;;8.80;7.07;;;14.60;99.90;;;;;;5070022;28;20423;-70
2023/07/25 04:16:04;;;;;;;12.03;7.67;;;14.60;99.90;;;;;;5064554;28;20823;-71
2023/07/25 04:18:29;;;;;;;9.47;8.47;;;14.60;99.90;;;;;;5064563;28;20175;-70
2023/07/25 04:20:55;;;;;;;10.20;7.77;;;14.60;99.90;;;;;;5064686;28;20444;-70
2023/07/25 04:23:22;;;;;;;12.40;7.10;;;14.60;99.90;;;;;;5069696;28;20267;-70
2023/07/25 04:25:48;;;;;;;11.50;7.70;;;14.70;99.90;;;;;;5071972;28;20171;-70
2023/07/25 04:28:13;;;;;;;10.00;7.20;;;14.70;99.90;;;;;;5068931;28;20908;-70
2023/07/25 04:30:39;;;;;;;11.70;7.80;;;14.70;99.90;;;;;;5076421;28;20510;-71
2023/07/25 04:33:05;;;;;;;8.43;6.90;;;14.70;99.90;;;;;;5078906;28;20172;-70
2023/07/25 04:35:31;;;;;;;8.57;6.80;;;14.80;99.90;;;;;;5077921;28;20230;-70
2023/07/25 04:37:56;;;;;;;6.77;6.07;;;14.80;99.90;;;;;;5070340;28;20179;-70
2023/07/25 04:40:22;;;;;;;9.03;7.37;;;14.70;99.90;;;;;;5068618;28;20198;-70
2023/07/25 04:42:47;;;;;;;8.73;6.77;;;14.80;99.90;;;;;;5071108;28;20182;-71
2023/07/25 04:45:13;;;;;;;9.27;8.30;;;14.90;99.90;;;;;;5048054;28;20168;-69
2023/07/25 04:47:38;;;;;;;13.37;7.60;;;14.80;99.90;;;;;;5049882;28;20564;-69
2023/07/25 04:50:04;;;;;;;10.70;7.03;;;14.90;99.90;;;;;;5067166;28;20299;-70
2023/07/25 04:52:30;;;;;;;6.83;6.03;;;15.00;99.90;;;;;;5050775;28;20647;-69
2023/07/25 04:54:57;;;;;;;7.03;5.40;;;15.10;99.90;;;;;;5060676;28;20441;-70
2023/07/25 04:57:26;;;;;;;6.43;5.80;;;15.10;99.90;;;;;;5066865;28;20207;-70
2023/07/25 04:59:52;;;;;;;10.40;6.40;;;15.20;99.90;;;;;;5069772;28;20465;-70
2023/07/25 05:02:19;;;;;;;12.93;6.30;;;15.20;99.90;;;;;;5062966;28;20482;-70
2023/07/25 05:04:45;;;;;;;7.83;6.20;;;15.20;99.90;;;;;;5063462;28;20907;-69
2023/07/25 05:07:12;;;;;;;7.30;5.80;;;15.20;99.90;;;;;;5071360;28;20403;-69
2023/07/25 05:09:38;;;;;;;6.67;5.97;;;15.30;99.90;;;;;;5062942;28;20191;-69
2023/07/25 05:12:04;;;;;;;8.17;5.40;;;15.20;99.90;;;;;;5067105;28;20425;-69
2023/07/25 05:14:30;;;;;;;6.70;4.77;;;15.20;99.90;;;;;;5064368;28;20187;-70
2023/07/25 05:16:56;;;;;;;9.60;5.60;;;15.20;99.90;;;;;;5063102;28;20893;-68
2023/07/25 05:19:23;;;;;;;8.47;4.63;;;15.30;99.90;;;;;;5062851;28;20906;-70
2023/07/25 05:21:49;;;;;;;5.97;4.77;;;15.40;99.90;;;;;;5066645;28;20474;-70
2023/07/25 05:24:15;;;;;;;10.50;4.43;;;15.50;99.90;;;;;;5064726;28;20412;-69
2023/07/25 05:26:41;;;;;;;9.77;5.67;;;15.70;99.90;;;;;;5047984;28;20263;-68
2023/07/25 05:29:07;;;;;;;4.50;3.97;;;16.00;99.90;;;;;;5059223;28;20285;-69
2023/07/25 05:31:33;;;;;;;5.70;3.80;;;16.30;99.90;;;;;;5061656;28;20440;-68
2023/07/25 05:33:59;;;;;;;5.83;4.07;;;16.30;99.90;;;;;;5068600;28;20498;-69
2023/07/25 05:36:25;;;;;;;4.53;3.93;;;16.30;99.90;;;;;;5068047;28;20189;-69
2023/07/25 05:38:50;;;;;;;7.40;4.03;;;16.00;99.90;;;;;;5065152;28;20326;-70
2023/07/25 05:41:16;;;;;;;5.33;3.90;;;16.20;99.90;;;;;;5057634;28;20994;-69
2023/07/25 05:43:42;;;;;;;7.03;3.80;;;15.90;99.90;;;;;;5063414;28;20166;-69
2023/07/25 05:46:08;;;;;;;9.33;3.90;;;15.90;99.90;;;;;;5059185;28;20174;-69
2023/07/25 05:48:34;;;;;;;8.50;3.00;;;15.80;99.90;;;;;;5064512;28;20172;-71
2023/07/25 05:51:00;;;;;;;3.77;2.40;;;15.80;99.90;;;;;;5064745;28;20455;-70
2023/07/25 05:53:25;;;;;;;3.77;2.57;;;15.70;99.90;;;;;;5068477;28;20174;-69
2023/07/25 05:55:51;;;;;;;4.97;2.20;;;15.90;99.90;;;;;;5059252;28;20176;-69
2023/07/25 05:58:18;;;;;;;3.90;2.30;;;16.10;99.90;;;;;;5065331;28;20175;-68
2023/07/25 06:00:44;;;;;;;6.30;3.40;;;16.20;99.90;;;;;;5068528;28;20203;-70
2023/07/25 06:03:14;;;;;;;4.70;2.50;;;16.40;99.90;;;;;;5065490;28;20401;-70
2023/07/25 06:05:41;;;;;;;3.40;3.10;;;16.60;99.90;;;;;;5042424;28;20551;-69
2023/07/25 06:08:07;;;;;;;4.73;2.43;;;16.80;99.90;;;;;;5068241;28;20439;-70
2023/07/25 06:10:34;;;;;;;5.20;2.90;;;16.90;99.90;;;;;;5066220;28;20200;-69
2023/07/25 06:13:00;;;;;;;5.27;2.23;;;17.30;99.90;;;;;;5058669;28;21314;-70
2023/07/25 06:15:28;;;;;;;3.30;2.10;;;17.50;99.90;;;;;;5063818;28;20498;-69
2023/07/25 06:17:54;;;;;;;3.90;2.70;;;17.30;99.90;;;;;;5066613;28;20593;-70
2023/07/25 06:20:19;;;;;;;2.90;1.80;;;17.50;99.90;;;;;;5057263;28;20435;-70
2023/07/25 06:22:45;;;;;;;3.37;1.80;;;18.00;99.90;;;;;;5062918;28;20199;-71
2023/07/25 06:25:14;;;;;;;2.93;1.80;;;17.80;99.90;;;;;;5071249;28;20176;-70
2023/07/25 06:27:39;;;;;;;4.20;2.10;;;17.60;99.90;;;;;;5070852;28;20172;-71
2023/07/25 06:30:06;;;;;;;5.33;3.23;;;18.00;99.90;;;;;;5067117;28;20982;-69
2023/07/25 06:32:37;;;;;;;2.77;2.10;;;18.40;99.90;;;;;;5061586;28;20411;-71
2023/07/25 06:35:04;;;;;;;6.33;2.37;;;19.10;99.90;;;;;;5052491;28;20421;-70
2023/07/25 06:37:32;;;;;;;6.93;2.50;;;19.20;99.90;;;;;;5052131;28;20408;-72
2023/07/25 06:40:00;;;;;;;4.47;2.30;;;19.40;99.90;;;;;;5047964;28;20467;-69
2023/07/25 06:42:28;;;;;;;5.90;2.10;;;19.30;99.90;;;;;;5071540;28;20458;-69
2023/07/25 06:44:54;;;;;;;3.97;2.60;;;19.80;99.90;;;;;;5062501;28;20405;-74
2023/07/25 06:47:19;;;;;;;5.03;3.70;;;20.10;99.90;;;;;;5065038;28;20509;-72
2023/07/25 06:49:45;;;;;;;2.97;2.00;;;20.00;99.90;;;;;;5065847;28;21056;-71
2023/07/25 06:52:10;;;;;;;4.83;2.33;;;19.20;99.90;;;;;;5059995;28;20177;-70
2023/07/25 06:54:37;;;;;;;3.30;2.40;;;19.70;99.90;;;;;;5054180;28;20179;-74
2023/07/25 06:57:03;;;;;;;3.23;2.60;;;19.80;99.90;;;;;;5059186;28;20174;-72
2023/07/25 06:59:29;;;;;;;4.07;2.30;;;19.90;99.90;;;;;;5061659;28;20433;-72
2023/07/25 07:01:55;;;;;;;4.03;2.37;;;19.20;99.90;;;;;;5053277;28;20202;-72
2023/07/25 07:04:21;;;;;;;3.13;2.30;;;20.00;99.90;;;;;;5066632;28;20408;-71
2023/07/25 07:06:47;;;;;;;6.80;2.20;;;20.70;99.90;;;;;;5069947;28;20402;-72
2023/07/25 07:09:13;;;;;;;2.50;1.90;;;21.10;99.90;;;;;;5066283;28;20553;-74
2023/07/25 07:11:39;;;;;;;2.87;2.23;;;20.60;99.90;;;;;;5062168;28;20231;-72
2023/07/25 07:14:05;;;;;;;3.50;2.40;;;20.40;99.90;;;;;;5063958;28;20461;-71
2023/07/25 07:16:31;;;;;;;4.10;2.80;;;20.40;99.90;;;;;;5066452;28;20437;-72
2023/07/25 07:18:56;;;;;;;2.67;1.57;;;21.40;99.90;;;;;;5065349;28;20521;-72
2023/07/25 07:21:22;;;;;;;4.67;3.00;;;22.10;99.90;;;;;;5064572;28;20192;-72
2023/07/25 07:23:47;;;;;;;2.17;1.40;;;21.90;99.90;;;;;;5043177;28;20212;-73
2023/07/25 07:26:13;;;;;;;3.13;2.70;;;22.40;99.90;;;;;;5063185;28;20263;-71
2023/07/25 07:28:39;;;;;;;7.73;2.70;;;22.80;99.90;;;;;;5064282;28;20190;-70
2023/07/25 07:31:05;;;;;;;3.57;1.97;;;21.60;99.90;;;;;;5058395;28;20585;-69
2023/07/25 07:33:30;;;;;;;2.47;1.97;;;21.80;99.90;;;;;;5061558;28;20201;-69
2023/07/25 07:35:56;;;;;;;5.53;2.10;;;21.50;99.90;;;;;;5057741;28;20167;-70
2023/07/25 07:38:21;;;;;;;4.50;2.20;;;21.20;99.90;;;;;;5058745;28;20194;-70
2023/07/25 07:40:47;;;;;;;3.13;2.70;;;21.40;99.90;;;;;;5068384;28;20205;-70
2023/07/25 07:43:15;;;;;;;4.50;1.50;;;21.90;99.90;;;;;;5064754;28;20207;-71
2023/07/25 07:45:41;;;;;;;2.73;1.80;;;22.80;99.90;;;;;;5066364;28;20588;-71
2023/07/25 07:48:06;;;;;;;5.00;2.17;;;22.60;99.90;;;;;;5063259;28;20436;-70
2023/07/25 07:50:33;;;;;;;3.07;2.17;;;23.20;99.90;;;;;;5069143;28;20219;-71
2023/07/25 07:52:59;;;;;;;3.93;2.07;;;23.40;99.90;;;;;;5068669;28;20167;-70
2023/07/25 07:55:24;;;;;;;4.43;2.60;;;23.20;99.90;;;;;;5067976;28;20780;-71
2023/07/25 07:57:50;;;;;;;3.50;2.40;;;22.70;99.90;;;;;;5074177;28;20412;-72
2023/07/25 08:00:16;;;;;;;2.20;1.90;;;22.90;99.90;;;;;;5069066;28;20186;-71
2023/07/25 08:02:44;;;;;;;3.00;1.80;;;23.20;99.90;;;;;;5077466;28;20312;-72
2023/07/25 08:05:10;;;;;;;4.90;1.83;;;22.60;99.90;;;;;;5078051;28;20800;-70
2023/07/25 08:07:37;;;;;;;2.70;1.50;;;23.40;99.90;;;;;;5057743;28;20579;-70
2023/07/25 08:10:03;;;;;;;4.67;1.80;;;24.20;99.90;;;;;;5069220;28;20612;-72
2023/07/25 08:12:30;;;;;;;4.80;1.80;;;24.80;99.90;;;;;;5062114;28;20428;-70
2023/07/25 08:14:55;;;;;;;3.30;1.87;;;24.80;99.90;;;;;;5064028;28;20971;-70
2023/07/25 08:17:24;;;;;;;3.43;1.40;;;24.90;99.90;;;;;;5072333;28;20546;-71
2023/07/25 08:19:50;;;;;;;4.17;2.10;;;25.10;99.90;;;;;;5058811;28;20575;-71
2023/07/25 08:22:16;;;;;;;2.90;1.60;;;25.10;99.90;;;;;;5060126;28;20543;-70
2023/07/25 08:24:42;;;;;;;4.37;1.70;;;23.80;99.90;;;;;;5061430;28;20649;-70
2023/07/25 08:27:08;;;;;;;3.70;2.07;;;24.30;99.90;;;;;;5078892;28;20541;-71
2023/07/25 08:29:42;;;;;;;4.90;2.00;;;25.60;99.90;;;;;;5060470;28;20502;-71
2023/07/25 08:32:11;;;;;;;2.20;1.77;;;25.40;99.90;;;;;;5059343;28;20432;-71
2023/07/25 08:34:38;;;;;;;3.40;1.80;;;25.40;99.90;;;;;;5060653;28;20504;-71
2023/07/25 08:37:04;;;;;;;3.50;1.83;;;24.50;99.90;;;;;;5071619;28;20524;-71
2023/07/25 08:39:30;;;;;;;5.17;1.50;;;23.00;99.90;;;;;;5074755;28;20440;-70
2023/07/25 08:41:58;;;;;;;2.40;1.57;;;22.80;99.90;;;;;;5064060;28;20461;-71
2023/07/25 08:44:25;;;;;;;2.87;1.57;;;23.70;99.90;;;;;;5065295;28;20174;-71
2023/07/25 08:46:53;;;;;;;3.87;1.70;;;24.80;99.90;;;;;;5070510;28;20405;-71
2023/07/25 08:49:24;;;;;;;2.80;1.77;;;24.40;99.90;;;;;;5067261;28;20458;-69
2023/07/25 08:51:54;;;;;;;4.40;1.73;;;23.70;99.90;;;;;;5055079;28;20805;-71
2023/07/25 08:54:36;;;;;;;4.17;2.10;;;23.80;99.90;;;;;;5050275;28;20474;-70
2023/07/25 08:57:04;;;;;;;2.37;1.83;;;24.10;99.90;;;;;;5059844;28;20779;-71
2023/07/25 08:59:30;;;;;;;3.50;1.90;;;24.70;99.90;;;;;;5064877;28;20515;-70
2023/07/25 09:01:57;;;;;;;1.70;1.40;;;24.30;99.90;;;;;;5059786;28;20487;-71
2023/07/25 09:04:24;;;;;;;2.40;1.30;;;24.60;99.90;;;;;;5069123;28;20412;-70
2023/07/25 09:06:51;;;;;;;2.67;1.33;;;23.60;99.90;;;;;;5070740;28;20488;-70
2023/07/25 09:09:16;;;;;;;1.87;1.30;;;22.90;99.90;;;;;;5073880;28;20460;-70
2023/07/25 09:11:44;;;;;;;3.43;1.87;;;23.40;99.90;;;;;;5059776;28;20445;-69
2023/07/25 09:14:13;;;;;;;2.90;1.60;;;23.20;99.90;;;;;;5059077;28;20529;-70
2023/07/25 09:16:38;;;;;;;1.77;1.67;;;23.70;99.90;;;;;;5071944;28;20791;-70
2023/07/25 09:19:04;;;;;;;2.57;1.40;;;23.50;99.90;;;;;;5064518;28;20485;-71
2023/07/25 09:21:30;;;;;;;4.13;1.67;;;23.10;99.90;;;;;;5065054;28;20469;-72
2023/07/25 09:23:58;;;;;;;2.47;1.50;;;23.50;99.90;;;;;;5064891;28;20179;-73
2023/07/25 09:26:29;;;;;;;1.70;1.50;;;24.00;99.90;;;;;;5067861;28;20585;-70
2023/07/25 09:28:57;;;;;;;4.03;2.07;;;24.00;99.90;;;;;;5049001;28;20792;-70
2023/07/25 09:31:24;;;;;;;3.43;1.77;;;23.10;99.90;;;;;;5070499;28;20416;-71
2023/07/25 09:33:52;;;;;;;2.10;1.93;;;22.90;99.90;;;;;;5060955;28;20470;-72
2023/07/25 09:36:18;;;;;;;2.43;2.10;;;22.70;99.90;;;;;;5070991;28;20456;-71
2023/07/25 09:38:54;;;;;;;3.20;1.57;;;23.40;99.90;;;;;;5067727;28;20506;-71
2023/07/25 09:41:23;;;;;;;3.70;1.70;;;24.00;99.90;;;;;;5065515;28;20851;-71
2023/07/25 09:43:50;;;;;;;3.33;1.70;;;23.30;99.90;;;;;;5056605;28;20403;-71
2023/07/25 09:46:15;;;;;;;13.07;10.17;;;23.00;99.90;;;;;;5069839;28;20496;-68
2023/07/25 09:48:46;;;;;;;2.63;2.40;;;22.40;99.90;;;;;;5071733;28;20527;-69
2023/07/25 09:51:12;;;;;;;2.67;2.10;;;23.00;99.90;;;;;;5062437;28;20673;-70
2023/07/25 09:53:41;;;;;;;3.93;3.13;;;23.10;99.90;;;;;;5060980;28;20438;-71
2023/07/25 09:56:07;;;;;;;3.20;2.57;;;23.50;99.90;;;;;;5059713;28;20411;-70
2023/07/25 09:58:34;;;;;;;5.00;3.77;;;22.40;99.90;;;;;;5072801;28;20408;-70
2023/07/25 10:01:00;;;;;;;5.10;1.53;;;22.40;99.90;;;;;;5062058;28;20476;-69
2023/07/25 10:03:29;;;;;;;2.63;1.50;;;22.20;99.90;;;;;;5061269;28;20409;-69
2023/07/25 10:05:56;;;;;;;3.80;1.80;;;21.20;99.90;;;;;;5069231;28;20415;-69
2023/07/25 10:08:24;;;;;;;7.07;5.37;;;21.10;99.90;;;;;;5070221;28;20429;-71
2023/07/25 10:10:51;;;;;;;6.80;3.07;;;21.90;99.90;;;;;;5064955;28;20534;-70
2023/07/25 10:13:17;;;;;;;1.97;1.70;;;22.60;99.90;;;;;;5046861;28;20426;-71
2023/07/25 10:15:43;;;;;;;2.20;1.63;;;22.00;99.90;;;;;;5065480;28;20433;-69
2023/07/25 10:18:20;;;;;;;10.90;2.93;;;21.10;99.90;;;;;;5071242;28;20651;-71
2023/07/25 10:20:48;;;;;;;3.73;2.87;;;21.50;99.90;;;;;;5063409;28;20496;-70
2023/07/25 10:23:14;;;;;;;3.30;2.60;;;21.40;99.90;;;;;;5061664;28;20405;-70
2023/07/25 10:26:18;;;;;;;3.40;1.53;;;22.30;99.90;;;;;;5069523;28;20421;-70
2023/07/25 10:28:43;;;;;;;7.60;2.33;;;22.20;99.90;;;;;;5067740;28;20947;-73
2023/07/25 10:31:22;;;;;;;3.83;2.00;;;21.90;99.90;;;;;;5063906;28;20402;-73
2023/07/25 10:33:54;;;;;;;3.83;1.90;;;22.70;99.90;;;;;;5067480;28;20174;-72
2023/07/25 10:36:24;;;;;;;2.13;1.93;;;22.50;99.90;;;;;;5073571;28;20971;-71
2023/07/25 10:38:50;;;;;;;2.10;1.63;;;22.90;99.90;;;;;;5059325;28;20778;-71
2023/07/25 10:41:16;;;;;;;4.10;2.10;;;22.30;99.90;;;;;;5062193;28;20492;-69
2023/07/25 10:43:44;;;;;;;2.80;1.63;;;22.40;99.90;;;;;;5061757;28;20432;-71
2023/07/25 10:46:14;;;;;;;4.43;1.70;;;22.50;99.90;;;;;;5063234;28;20404;-72
2023/07/25 10:48:45;;;;;;;4.33;2.07;;;22.90;99.90;;;;;;5055645;28;20447;-72
2023/07/25 10:51:12;;;;;;;2.70;1.70;;;22.60;99.90;;;;;;5078621;28;20408;-70
2023/07/25 10:53:39;;;;;;;5.10;1.67;;;22.30;99.90;;;;;;5063912;28;20418;-72
2023/07/25 10:56:04;;;;;;;3.27;1.80;;;22.70;99.90;;;;;;5061033;28;20924;-71
2023/07/25 10:58:37;;;;;;;1.80;1.50;;;23.20;99.90;;;;;;5069701;28;20525;-71
2023/07/25 11:01:03;;;;;;;1.93;1.73;;;22.90;99.90;;;;;;5068082;28;20189;-70
2023/07/25 11:03:29;;;;;;;1.97;1.73;;;22.80;99.90;;;;;;5064137;28;20434;-72
2023/07/25 11:06:07;;;;;;;2.60;1.67;;;22.30;99.90;;;;;;5059861;28;20170;-70
2023/07/25 11:08:37;;;;;;;1.67;1.47;;;22.70;99.90;;;;;;5067966;28;20927;-70
2023/07/25 11:11:08;;;;;;;1.70;1.33;;;22.50;99.90;;;;;;5049997;28;20493;-69
2023/07/25 11:13:37;;;;;;;3.33;1.50;;;22.40;99.90;;;;;;5079289;28;20423;-71
2023/07/25 11:16:08;;;;;;;3.07;1.60;;;22.20;99.90;;;;;;5072382;28;20417;-68
2023/07/25 11:18:39;;;;;;;2.60;1.43;;;22.20;99.90;;;;;;5051444;28;20440;-69
2023/07/25 11:21:07;;;;;;;1.93;1.60;;;22.00;99.90;;;;;;5040299;28;20933;-70
2023/07/25 11:23:34;;;;;;;1.93;1.70;;;21.70;99.90;;;;;;5076977;28;20477;-70
2023/07/25 11:26:08;;;;;;;3.27;1.40;;;22.20;99.90;;;;;;5073183;28;20415;-70
2023/07/25 11:28:37;;;;;;;2.60;1.60;;;22.30;99.90;;;;;;5078431;28;20482;-70
2023/07/25 11:31:03;;;;;;;3.23;1.63;;;21.70;99.90;;;;;;5068875;28;20774;-69
2023/07/25 11:33:40;;;;;;;2.23;2.00;;;21.90;99.90;;;;;;5068243;28;20413;-69
2023/07/25 11:36:06;;;;;;;2.27;1.60;;;21.90;99.90;;;;;;5053404;28;20179;-69
2023/07/25 11:38:35;;;;;;;3.10;1.60;;;21.90;99.90;;;;;;5070293;28;20412;-68
2023/07/25 11:41:01;;;;;;;3.17;1.77;;;22.00;99.90;;;;;;5073079;28;20549;-68
2023/07/25 11:43:29;;;;;;;7.30;2.30;;;21.80;99.90;;;;;;5064613;28;20496;-69
2023/07/25 11:45:54;;;;;;;4.20;2.03;;;21.90;99.90;;;;;;5065267;28;20168;-68
2023/07/25 11:48:21;;;;;;;3.13;1.63;;;21.70;99.90;;;;;;5060497;28;20409;-68
2023/07/25 11:50:49;;;;;;;1.80;1.50;;;21.80;99.90;;;;;;5071472;28;20224;-70
2023/07/25 11:53:16;;;;;;;4.20;2.10;;;21.60;99.90;;;;;;5074823;28;20658;-69
2023/07/25 11:55:42;;;;;;;3.03;1.57;;;22.30;99.90;;;;;;5074329;28;20832;-69
2023/07/25 11:58:08;;;;;;;2.60;2.17;;;22.30;99.90;;;;;;5070980;28;20415;-70
2023/07/25 12:00:40;;;;;;;4.87;1.97;;;21.80;99.90;;;;;;5070152;28;20440;-70
2023/07/25 12:03:19;;;;;;;5.37;1.97;;;22.20;99.90;;;;;;5068034;28;20170;-70
2023/07/25 12:05:53;;;;;;;2.77;1.97;;;21.80;99.90;;;;;;5088705;22;20988;-67
2023/07/25 12:08:55;;;;;;;1.83;1.57;;;22.40;99.90;;;;;;5071517;28;20417;-68
2023/07/25 12:11:21;;;;;;;2.60;2.17;;;22.50;99.90;;;;;;5025603;28;20510;-70
2023/07/25 12:13:47;;;;;;;3.90;2.47;;;22.50;99.90;;;;;;5075782;28;20418;-69
2023/07/25 12:16:27;;;;;;;2.30;1.90;;;22.70;99.90;;;;;;5084490;28;20436;-67
2023/07/25 12:18:55;;;;;;;2.97;1.90;;;23.20;99.90;;;;;;5088661;28;20753;-66
2023/07/25 12:21:24;;;;;;;2.30;1.80;;;22.90;99.90;;;;;;5083842;28;20834;-69
2023/07/25 12:23:51;;;;;;;3.87;1.90;;;23.30;99.90;;;;;;5089542;28;20411;-68
2023/07/25 12:26:20;;;;;;;2.47;1.73;;;23.50;99.90;;;;;;5081635;28;20430;-67
2023/07/25 12:28:46;;;;;;;6.00;2.13;;;23.00;99.90;;;;;;5082827;28;20417;-67
2023/07/25 12:31:13;;;;;;;2.30;1.70;;;22.70;99.90;;;;;;5080634;28;20524;-68
2023/07/25 12:33:44;;;;;;;2.67;1.53;;;22.70;99.90;;;;;;5081461;28;20534;-67
2023/07/25 12:36:10;;;;;;;3.33;2.50;;;22.70;99.90;;;;;;5085159;28;20424;-68
2023/07/25 12:38:36;;;;;;;3.90;1.67;;;22.60;99.90;;;;;;5075804;28;20407;-68
2023/07/25 12:41:02;;;;;;;3.10;1.93;;;22.00;99.90;;;;;;5088447;28;20440;-72